Time;durP1;ratioP1;P1;durP2;ratioP2;P2;SDS_P1;SDS_P2;PMS_P1;PMS_P2;Temp;Humidity;BMP_temperature;BMP_pressure;BME280_temperature;BME280_humidity;BME280_pressure;Samples;Min_cycle;Max_cycle;Signal;HPM_P1;HPM_P2
2024/01/22 00:02:04;;;;;;;16.40;7.80;;;7.50;54.80;;;;;;5057585;28;20478;-84
2024/01/22 00:04:29;;;;;;;13.75;7.75;;;7.50;55.50;;;;;;5058400;28;20025;-81
2024/01/22 00:06:55;;;;;;;11.23;7.45;;;7.60;54.90;;;;;;5060729;28;20482;-83
2024/01/22 00:09:21;;;;;;;12.70;7.03;;;7.60;54.90;;;;;;5056022;28;20033;-86
2024/01/22 00:11:46;;;;;;;10.45;6.63;;;7.60;54.80;;;;;;5055585;28;20555;-83
2024/01/22 00:14:12;;;;;;;13.52;7.20;;;7.60;54.90;;;;;;5055852;28;20032;-83
2024/01/22 00:16:41;;;;;;;12.20;7.05;;;7.50;55.00;;;;;;5055745;28;20419;-83
2024/01/22 00:19:07;;;;;;;12.20;6.90;;;7.50;55.10;;;;;;5055772;28;20071;-84
2024/01/22 00:21:33;;;;;;;12.52;7.20;;;7.40;54.70;;;;;;5055733;28;20040;-83
2024/01/22 00:23:59;;;;;;;11.15;6.63;;;7.40;55.10;;;;;;5037675;28;20040;-84
2024/01/22 00:26:25;;;;;;;10.70;6.93;;;7.40;55.10;;;;;;5071228;28;20060;-82
2024/01/22 00:28:51;;;;;;;11.43;6.88;;;7.40;55.30;;;;;;5067092;28;20052;-83
2024/01/22 00:31:16;;;;;;;11.43;6.85;;;7.40;55.30;;;;;;5076391;28;20047;-81
2024/01/22 00:33:43;;;;;;;12.25;6.50;;;7.40;55.10;;;;;;5062300;28;20064;-83
2024/01/22 00:36:15;;;;;;;13.57;6.68;;;7.40;55.20;;;;;;5053286;28;20037;-82
2024/01/22 00:38:41;;;;;;;10.80;6.40;;;7.30;55.10;;;;;;5055752;28;20113;-84
2024/01/22 00:41:07;;;;;;;11.57;7.00;;;7.30;55.20;;;;;;5055433;28;20481;-83
2024/01/22 00:43:34;;;;;;;10.60;6.55;;;7.30;55.30;;;;;;5037210;28;20036;-84
2024/01/22 00:46:03;;;;;;;11.25;6.80;;;7.20;55.50;;;;;;5055575;28;20063;-83
2024/01/22 00:48:29;;;;;;;14.32;7.60;;;7.10;55.50;;;;;;5056082;28;20126;-81
2024/01/22 00:50:55;;;;;;;11.57;6.90;;;7.10;55.80;;;;;;5054637;28;20069;-84
2024/01/22 00:53:20;;;;;;;10.52;6.25;;;7.10;55.70;;;;;;5055120;28;20035;-83
2024/01/22 00:55:46;;;;;;;11.25;7.05;;;7.10;55.80;;;;;;5055015;28;20048;-82
2024/01/22 00:58:12;;;;;;;14.48;6.72;;;7.00;55.90;;;;;;5055537;28;20033;-82
2024/01/22 01:00:37;;;;;;;9.80;6.25;;;7.10;55.80;;;;;;5055729;28;20118;-83
2024/01/22 01:03:03;;;;;;;12.75;6.60;;;7.00;55.80;;;;;;5055458;28;20033;-82
2024/01/22 01:05:29;;;;;;;12.15;6.57;;;7.00;56.10;;;;;;5064634;28;20045;-82
2024/01/22 01:07:55;;;;;;;12.55;6.60;;;7.00;56.00;;;;;;5072969;28;20029;-82
2024/01/22 01:10:20;;;;;;;10.57;6.53;;;7.00;56.00;;;;;;5054472;28;20038;-82
2024/01/22 01:12:46;;;;;;;10.73;6.30;;;6.90;56.10;;;;;;5054766;28;20107;-83
2024/01/22 01:15:12;;;;;;;10.85;6.25;;;7.00;56.10;;;;;;5055126;28;20041;-83
2024/01/22 01:17:38;;;;;;;9.50;5.40;;;7.00;56.00;;;;;;5054830;28;20025;-83
2024/01/22 01:20:04;;;;;;;9.27;6.10;;;7.00;55.90;;;;;;5056984;28;20045;-81
2024/01/22 01:22:31;;;;;;;9.15;5.18;;;6.90;55.80;;;;;;5073149;28;20053;-83
2024/01/22 01:24:57;;;;;;;10.70;6.10;;;6.90;55.90;;;;;;5075174;28;20037;-81
2024/01/22 01:27:22;;;;;;;10.20;5.97;;;6.90;56.00;;;;;;5068667;28;20068;-83
2024/01/22 01:29:48;;;;;;;11.18;5.68;;;6.80;55.90;;;;;;5059317;28;20048;-83
2024/01/22 01:32:14;;;;;;;9.32;6.13;;;6.90;55.90;;;;;;5061193;28;20065;-83
2024/01/22 01:34:39;;;;;;;9.98;5.50;;;6.80;55.80;;;;;;5036870;28;20044;-83
2024/01/22 01:37:05;;;;;;;9.23;5.55;;;6.80;55.90;;;;;;5054504;28;20033;-83
2024/01/22 01:39:31;;;;;;;8.95;5.47;;;6.80;56.00;;;;;;5053883;28;20045;-82
2024/01/22 01:41:57;;;;;;;10.32;5.95;;;6.80;56.00;;;;;;5054178;28;20037;-84
2024/01/22 01:44:38;;;;;;;13.90;6.00;;;6.70;55.90;;;;;;5054364;28;20025;-82
2024/01/22 01:47:04;;;;;;;10.18;5.18;;;6.80;56.20;;;;;;5054187;28;20056;-84
2024/01/22 01:49:30;;;;;;;9.45;5.45;;;6.80;56.00;;;;;;5054098;28;20116;-83
2024/01/22 01:51:56;;;;;;;8.57;5.47;;;6.80;56.10;;;;;;5063796;28;20048;-83
2024/01/22 01:54:24;;;;;;;9.15;5.15;;;6.60;56.10;;;;;;5068042;28;20029;-82
2024/01/22 01:56:51;;;;;;;11.05;5.38;;;6.60;56.20;;;;;;5054617;28;20439;-82
2024/01/22 01:59:18;;;;;;;11.02;5.80;;;6.60;56.30;;;;;;5035994;28;20045;-83
2024/01/22 02:01:44;;;;;;;11.70;5.65;;;6.60;56.20;;;;;;5053579;28;20502;-85
2024/01/22 02:04:10;;;;;;;9.73;5.28;;;6.70;56.40;;;;;;5053743;28;20033;-82
2024/01/22 02:06:35;;;;;;;8.25;5.20;;;6.60;56.20;;;;;;5053452;28;20083;-83
2024/01/22 02:09:01;;;;;;;9.15;4.93;;;6.60;56.40;;;;;;5053708;28;20033;-84
2024/01/22 02:11:27;;;;;;;8.68;4.82;;;6.50;56.20;;;;;;5053803;28;20041;-83
2024/01/22 02:13:56;;;;;;;9.82;5.30;;;6.50;56.50;;;;;;5053424;28;20037;-84
2024/01/22 02:16:22;;;;;;;9.38;4.95;;;6.50;56.60;;;;;;5052796;28;20064;-85
2024/01/22 02:18:47;;;;;;;8.35;4.90;;;6.50;56.40;;;;;;5052694;28;20080;-84
2024/01/22 02:21:14;;;;;;;9.27;4.85;;;6.50;56.40;;;;;;5035187;28;20482;-82
2024/01/22 02:23:40;;;;;;;9.00;4.93;;;6.50;56.50;;;;;;5052907;28;20533;-82
2024/01/22 02:26:05;;;;;;;10.23;5.35;;;6.50;56.50;;;;;;5053371;28;20048;-83
2024/01/22 02:28:32;;;;;;;10.07;5.35;;;6.50;56.50;;;;;;5053596;28;20037;-84
2024/01/22 02:31:02;;;;;;;8.70;4.60;;;6.50;56.50;;;;;;5052951;28;20513;-82
2024/01/22 02:33:28;;;;;;;8.38;4.97;;;6.50;56.50;;;;;;5053294;28;20056;-83
2024/01/22 02:35:54;;;;;;;11.75;4.85;;;6.50;56.50;;;;;;5035293;28;20033;-81
2024/01/22 02:38:19;;;;;;;8.48;5.10;;;6.60;56.60;;;;;;5053362;28;20036;-82
2024/01/22 02:40:45;;;;;;;9.60;5.07;;;6.50;56.40;;;;;;5053328;28;20041;-82
2024/01/22 02:43:11;;;;;;;7.75;5.03;;;6.50;56.50;;;;;;5052816;28;20029;-82
2024/01/22 02:45:36;;;;;;;9.07;4.88;;;6.40;56.60;;;;;;5053269;28;20071;-82
2024/01/22 02:48:02;;;;;;;7.88;4.68;;;6.30;56.70;;;;;;5053491;28;20029;-82
2024/01/22 02:50:28;;;;;;;11.35;4.90;;;6.30;56.80;;;;;;5061421;28;20025;-83
2024/01/22 02:52:54;;;;;;;7.30;4.32;;;6.20;56.70;;;;;;5057041;28;20067;-83
2024/01/22 02:55:19;;;;;;;10.75;5.00;;;6.20;56.70;;;;;;5058982;28;20044;-82
2024/01/22 02:57:45;;;;;;;7.75;4.80;;;6.30;57.00;;;;;;5054487;28;20051;-83
2024/01/22 03:00:11;;;;;;;9.88;5.00;;;6.20;56.90;;;;;;5034846;28;20049;-83
2024/01/22 03:02:37;;;;;;;8.65;4.45;;;6.30;57.00;;;;;;5052910;28;20033;-83
2024/01/22 03:05:03;;;;;;;8.82;4.85;;;6.20;56.70;;;;;;5052308;28;20049;-83
2024/01/22 03:07:29;;;;;;;8.50;4.57;;;6.20;56.90;;;;;;5052540;28;20495;-82
2024/01/22 03:09:54;;;;;;;10.63;4.85;;;6.30;56.80;;;;;;5034544;28;20091;-84
2024/01/22 03:12:20;;;;;;;7.50;4.63;;;6.30;56.70;;;;;;5053011;28;20036;-83
2024/01/22 03:14:46;;;;;;;9.55;5.00;;;6.20;56.60;;;;;;5042129;28;20061;-83
2024/01/22 03:17:11;;;;;;;8.20;4.53;;;6.20;57.00;;;;;;5042471;28;20781;-83
2024/01/22 03:19:37;;;;;;;8.05;4.95;;;6.20;56.80;;;;;;5076237;28;20057;-82
2024/01/22 03:22:03;;;;;;;10.00;4.88;;;6.10;56.80;;;;;;5076445;28;20023;-82
2024/01/22 03:24:29;;;;;;;9.73;4.68;;;6.10;56.80;;;;;;5076412;28;20154;-83
2024/01/22 03:26:54;;;;;;;9.38;4.63;;;6.00;56.70;;;;;;5071571;28;20045;-83
2024/01/22 03:29:20;;;;;;;6.97;4.55;;;6.10;57.00;;;;;;5036451;28;20118;-84
2024/01/22 03:31:46;;;;;;;10.23;5.18;;;6.10;56.90;;;;;;5056358;28;20029;-84
2024/01/22 03:34:11;;;;;;;6.93;4.50;;;6.00;56.70;;;;;;5056458;28;20040;-84
2024/01/22 03:36:37;;;;;;;7.90;4.78;;;6.00;56.90;;;;;;5056247;28;20390;-83
2024/01/22 03:39:04;;;;;;;8.52;4.80;;;6.00;56.90;;;;;;5056118;28;20083;-84
2024/01/22 03:41:29;;;;;;;9.63;4.82;;;6.00;56.80;;;;;;5056463;28;20478;-83
2024/01/22 03:43:57;;;;;;;8.70;5.10;;;6.00;56.90;;;;;;5056343;28;20063;-82
2024/01/22 03:46:22;;;;;;;8.95;4.75;;;6.00;56.90;;;;;;5056051;28;20033;-84
2024/01/22 03:48:48;;;;;;;9.10;5.32;;;6.00;56.90;;;;;;5038439;28;20078;-83
2024/01/22 03:51:14;;;;;;;9.70;4.60;;;5.90;56.80;;;;;;5039605;28;20029;-82
2024/01/22 03:53:39;;;;;;;7.45;4.30;;;5.90;57.00;;;;;;5057485;28;20033;-82
2024/01/22 03:56:06;;;;;;;8.60;4.80;;;6.00;57.30;;;;;;5057864;28;20037;-81
2024/01/22 03:58:33;;;;;;;8.70;4.72;;;6.00;56.90;;;;;;5038102;28;20033;-85
2024/01/22 04:00:59;;;;;;;12.88;4.40;;;6.00;57.00;;;;;;5038158;28;20037;-81
2024/01/22 04:03:25;;;;;;;9.30;4.72;;;6.00;56.90;;;;;;5056199;28;20061;-84
2024/01/22 04:05:50;;;;;;;11.07;4.93;;;6.00;56.90;;;;;;5057547;28;20086;-83
2024/01/22 04:08:16;;;;;;;8.70;4.63;;;6.00;57.00;;;;;;5065770;28;20037;-84
2024/01/22 04:10:42;;;;;;;9.80;4.88;;;5.90;57.00;;;;;;5042405;28;20069;-83
2024/01/22 04:13:08;;;;;;;7.90;4.30;;;5.90;57.00;;;;;;5057641;28;20044;-82
2024/01/22 04:15:35;;;;;;;8.75;5.05;;;5.90;57.20;;;;;;5056131;28;20033;-83
2024/01/22 04:18:01;;;;;;;10.38;5.25;;;5.80;57.20;;;;;;5057536;28;20082;-84
2024/01/22 04:20:26;;;;;;;7.38;4.50;;;5.80;57.30;;;;;;5057057;28;20422;-84
2024/01/22 04:22:52;;;;;;;9.82;5.20;;;5.80;57.20;;;;;;5055572;28;20044;-83
2024/01/22 04:25:18;;;;;;;8.48;5.03;;;5.80;57.20;;;;;;5055209;28;20072;-83
2024/01/22 04:27:44;;;;;;;8.68;5.00;;;5.80;57.20;;;;;;5038737;28;20179;-83
2024/01/22 04:30:10;;;;;;;8.05;4.88;;;5.80;57.20;;;;;;5035369;28;20033;-84
2024/01/22 04:32:36;;;;;;;8.15;4.68;;;5.70;57.10;;;;;;5017467;28;20029;-84
2024/01/22 04:35:04;;;;;;;13.80;6.13;;;5.70;57.10;;;;;;5035384;28;20032;-83
2024/01/22 04:37:30;;;;;;;8.07;4.57;;;5.70;57.30;;;;;;5017831;28;20033;-84
2024/01/22 04:40:07;;;;;;;11.52;4.47;;;5.70;57.10;;;;;;5034680;28;20052;-85
2024/01/22 04:42:33;;;;;;;8.40;4.38;;;5.60;57.10;;;;;;5034956;28;20033;-84
2024/01/22 04:44:59;;;;;;;9.43;5.20;;;5.60;57.10;;;;;;5034527;28;20037;-83
2024/01/22 04:47:25;;;;;;;10.88;4.70;;;5.50;57.10;;;;;;5017082;28;20084;-85
2024/01/22 04:49:51;;;;;;;8.45;4.85;;;5.60;57.40;;;;;;5034674;28;20025;-83
2024/01/22 04:52:16;;;;;;;7.80;4.93;;;5.60;57.30;;;;;;5017057;28;20467;-83
2024/01/22 04:54:42;;;;;;;12.07;5.72;;;5.60;57.30;;;;;;5034156;28;20037;-84
2024/01/22 04:57:08;;;;;;;9.27;4.40;;;5.60;57.20;;;;;;5034487;28;20034;-84
2024/01/22 04:59:33;;;;;;;8.30;4.70;;;5.50;57.10;;;;;;5035247;28;20479;-84
2024/01/22 05:01:59;;;;;;;9.35;4.65;;;5.50;57.10;;;;;;5034598;28;20039;-84
2024/01/22 05:04:25;;;;;;;7.95;4.50;;;5.50;57.10;;;;;;5016417;28;20037;-84
2024/01/22 05:06:50;;;;;;;9.52;4.78;;;5.50;57.10;;;;;;5034388;28;20079;-85
2024/01/22 05:09:16;;;;;;;9.18;5.20;;;5.40;57.00;;;;;;5035322;28;20037;-83
2024/01/22 05:11:42;;;;;;;8.38;4.90;;;5.40;57.20;;;;;;5034495;28;20049;-83
2024/01/22 05:14:07;;;;;;;11.40;6.07;;;5.40;57.20;;;;;;5034734;28;20048;-84
2024/01/22 05:16:33;;;;;;;8.07;4.72;;;5.50;57.40;;;;;;5035676;28;20117;-83
2024/01/22 05:18:59;;;;;;;9.85;4.80;;;5.50;57.50;;;;;;5035427;28;20045;-83
2024/01/22 05:21:25;;;;;;;9.13;4.93;;;5.50;57.50;;;;;;5034959;28;20120;-85
2024/01/22 05:23:50;;;;;;;13.23;7.03;;;5.40;57.80;;;;;;5034469;28;20376;-84
2024/01/22 05:26:16;;;;;;;9.32;4.90;;;5.40;57.90;;;;;;5034142;28;20041;-83
2024/01/22 05:28:42;;;;;;;10.55;5.45;;;5.40;58.00;;;;;;5034179;28;20040;-83
2024/01/22 05:31:08;;;;;;;12.25;7.18;;;5.30;58.20;;;;;;5034473;28;20037;-84
2024/01/22 05:33:33;;;;;;;10.98;5.30;;;5.20;58.20;;;;;;5033928;28;20065;-84
2024/01/22 05:35:59;;;;;;;10.38;6.53;;;5.20;58.30;;;;;;5034208;28;20487;-83
2024/01/22 05:38:25;;;;;;;11.95;5.93;;;5.20;58.50;;;;;;5034372;28;20040;-86
2024/01/22 05:40:51;;;;;;;11.13;4.97;;;5.20;58.50;;;;;;5034055;28;20128;-84
2024/01/22 05:43:16;;;;;;;13.52;7.70;;;5.20;58.60;;;;;;5017029;28;20037;-83
2024/01/22 05:45:42;;;;;;;9.93;6.35;;;5.20;58.40;;;;;;5036066;28;20045;-84
2024/01/22 05:48:09;;;;;;;8.32;4.60;;;5.20;58.30;;;;;;5036817;28;20112;-84
2024/01/22 05:50:35;;;;;;;10.50;5.95;;;5.10;58.30;;;;;;5049612;28;20038;-84
2024/01/22 05:53:01;;;;;;;10.75;4.88;;;5.10;58.20;;;;;;5055492;28;20078;-83
2024/01/22 05:55:29;;;;;;;8.63;5.75;;;5.20;58.40;;;;;;5052861;28;20044;-83
2024/01/22 05:57:55;;;;;;;11.57;6.72;;;5.20;58.10;;;;;;5033918;28;20127;-85
2024/01/22 06:00:21;;;;;;;10.05;6.15;;;5.20;58.10;;;;;;5033603;28;20049;-85
2024/01/22 06:02:47;;;;;;;12.90;6.80;;;5.20;58.00;;;;;;5034265;28;20038;-84
2024/01/22 06:05:13;;;;;;;12.30;5.60;;;5.20;57.90;;;;;;5036326;28;20387;-85
2024/01/22 06:07:39;;;;;;;9.98;5.65;;;5.20;57.70;;;;;;5041166;28;20116;-85
2024/01/22 06:10:06;;;;;;;10.57;5.85;;;5.30;57.60;;;;;;5041407;28;20063;-84
2024/01/22 06:12:32;;;;;;;9.30;4.60;;;5.30;57.60;;;;;;5055987;28;20025;-84
2024/01/22 06:14:58;;;;;;;11.70;5.22;;;5.30;57.40;;;;;;5057799;28;20026;-85
2024/01/22 06:17:24;;;;;;;7.10;4.10;;;5.30;57.30;;;;;;5039944;28;20144;-85
2024/01/22 06:19:50;;;;;;;9.95;5.68;;;5.30;57.30;;;;;;5041964;28;20045;-84
2024/01/22 06:22:17;;;;;;;9.15;5.47;;;5.20;56.80;;;;;;5017545;28;20029;-84
2024/01/22 06:24:44;;;;;;;9.98;5.75;;;5.10;56.90;;;;;;5034225;28;20388;-84
2024/01/22 06:27:09;;;;;;;9.30;4.75;;;5.10;57.00;;;;;;5053036;23;20053;-83
2024/01/22 06:29:35;;;;;;;9.38;5.60;;;5.10;57.00;;;;;;5055076;28;20476;-84
2024/01/22 06:32:04;;;;;;;10.48;5.80;;;5.10;57.30;;;;;;5054917;28;20117;-84
2024/01/22 06:34:30;;;;;;;9.52;5.63;;;5.10;57.20;;;;;;5054785;28;20048;-83
2024/01/22 06:36:56;;;;;;;12.32;5.82;;;5.10;57.10;;;;;;5053368;28;20030;-84
2024/01/22 06:39:22;;;;;;;11.70;5.75;;;5.00;57.00;;;;;;5053530;28;20071;-86
2024/01/22 06:41:48;;;;;;;11.23;6.05;;;5.00;56.80;;;;;;5053414;28;20033;-85
2024/01/22 06:44:15;;;;;;;9.52;5.55;;;5.00;57.00;;;;;;5054203;28;20112;-84
2024/01/22 06:46:41;;;;;;;9.27;5.90;;;5.10;57.00;;;;;;5054662;28;20075;-84
2024/01/22 06:49:07;;;;;;;12.10;5.90;;;5.10;57.20;;;;;;5037800;28;20033;-85
2024/01/22 06:51:33;;;;;;;8.88;6.03;;;5.20;57.00;;;;;;5053762;28;20452;-85
2024/01/22 06:53:59;;;;;;;9.93;5.80;;;5.20;57.10;;;;;;5052963;28;20064;-86
2024/01/22 06:56:25;;;;;;;10.80;6.20;;;5.20;56.90;;;;;;5053629;28;20033;-87
2024/01/22 06:58:51;;;;;;;11.77;6.22;;;5.30;56.90;;;;;;5055732;28;20470;-78
2024/01/22 07:01:19;;;;;;;9.52;5.72;;;5.30;56.50;;;;;;5053615;28;20037;-86
2024/01/22 07:03:45;;;;;;;12.30;6.07;;;5.60;56.70;;;;;;5052339;28;20470;-85
2024/01/22 07:06:11;;;;;;;12.73;4.88;;;6.20;56.20;;;;;;5054546;28;20453;-84
2024/01/22 07:08:36;;;;;;;11.98;5.82;;;6.80;55.10;;;;;;5054401;28;20037;-85
2024/01/22 07:11:02;;;;;;;11.27;5.00;;;7.50;54.50;;;;;;5058473;28;20072;-87
2024/01/22 07:13:28;;;;;;;9.48;5.00;;;8.10;53.20;;;;;;5055428;28;20102;-88
2024/01/22 07:15:54;;;;;;;9.60;5.32;;;8.60;52.00;;;;;;5054243;28;20033;-87
2024/01/22 07:18:20;;;;;;;9.40;5.35;;;9.00;51.20;;;;;;5052835;28;20091;-85
2024/01/22 07:20:46;;;;;;;12.25;5.22;;;9.30;50.60;;;;;;5035823;28;20144;-85
2024/01/22 07:23:12;;;;;;;12.05;5.05;;;9.70;50.50;;;;;;5069903;28;20048;-84
2024/01/22 07:25:37;;;;;;;10.32;5.53;;;10.10;49.20;;;;;;5055557;28;20039;-85
2024/01/22 07:28:04;;;;;;;12.70;5.65;;;10.50;48.60;;;;;;5054897;28;20033;-86
2024/01/22 07:30:30;;;;;;;11.90;5.28;;;10.70;47.70;;;;;;5052791;28;20051;-84
2024/01/22 07:32:56;;;;;;;11.50;5.57;;;11.00;47.90;;;;;;5052253;28;20033;-86
2024/01/22 07:35:24;;;;;;;14.02;5.30;;;11.30;47.50;;;;;;5052752;28;20491;-84
2024/01/22 07:37:50;;;;;;;13.30;5.35;;;11.30;46.90;;;;;;5052797;28;20064;-85
2024/01/22 07:40:16;;;;;;;9.23;5.38;;;11.40;46.90;;;;;;5052324;28;20048;-85
2024/01/22 07:42:42;;;;;;;11.18;5.43;;;11.70;46.50;;;;;;5052834;28;20075;-85
2024/01/22 07:45:10;;;;;;;10.90;6.10;;;12.00;46.30;;;;;;5053421;28;20494;-86
2024/01/22 07:47:36;;;;;;;13.43;6.03;;;11.80;46.10;;;;;;5052743;28;20033;-86
2024/01/22 07:50:06;;;;;;;11.15;6.05;;;10.60;46.30;;;;;;5052764;28;20483;-82
2024/01/22 07:52:34;;;;;;;10.15;6.00;;;9.60;48.60;;;;;;5052746;28;20069;-87
2024/01/22 07:55:01;;;;;;;11.98;6.03;;;8.90;49.70;;;;;;5056031;28;20041;-85
2024/01/22 07:57:28;;;;;;;13.40;6.20;;;8.30;50.60;;;;;;5053227;28;20495;-86
2024/01/22 07:59:53;;;;;;;11.00;6.05;;;7.80;51.10;;;;;;5053290;28;20045;-86
2024/01/22 08:02:19;;;;;;;11.65;6.55;;;7.30;51.70;;;;;;5053169;28;20152;-85
2024/01/22 08:04:45;;;;;;;11.75;6.13;;;7.10;52.70;;;;;;5035134;28;20033;-84
2024/01/22 08:07:11;;;;;;;16.80;6.35;;;7.10;53.10;;;;;;5053727;28;20036;-84
2024/01/22 08:09:37;;;;;;;12.60;7.05;;;6.80;53.00;;;;;;5054398;28;20441;-84
2024/01/22 08:12:05;;;;;;;13.52;7.03;;;6.60;53.40;;;;;;5053510;28;20033;-84
2024/01/22 08:14:33;;;;;;;12.13;7.00;;;6.60;53.60;;;;;;5054899;28;20114;-85
2024/01/22 08:16:58;;;;;;;16.55;7.88;;;6.50;53.70;;;;;;5060423;28;20083;-84
2024/01/22 08:19:24;;;;;;;17.65;7.18;;;6.50;53.90;;;;;;5058955;28;20045;-85
2024/01/22 08:21:50;;;;;;;10.93;6.75;;;6.50;53.70;;;;;;5059563;28;20037;-85
2024/01/22 08:24:15;;;;;;;12.57;7.05;;;6.50;53.60;;;;;;5058635;28;20036;-86
2024/01/22 08:26:42;;;;;;;14.65;7.68;;;6.50;53.70;;;;;;5059442;28;20166;-85
2024/01/22 08:29:07;;;;;;;21.02;7.22;;;6.50;54.30;;;;;;5057857;28;20151;-85
2024/01/22 08:31:33;;;;;;;15.63;8.20;;;6.60;53.90;;;;;;5064159;28;20021;-83
2024/01/22 08:34:00;;;;;;;15.48;7.45;;;6.70;53.70;;;;;;5078906;28;20178;-85
2024/01/22 08:36:26;;;;;;;18.35;7.93;;;6.70;53.80;;;;;;5078907;28;20021;-84
2024/01/22 08:38:51;;;;;;;15.70;7.72;;;6.80;53.60;;;;;;5078918;28;20029;-85
2024/01/22 08:41:17;;;;;;;15.18;6.65;;;6.80;53.50;;;;;;5074593;28;20111;-86
2024/01/22 08:43:43;;;;;;;16.17;7.40;;;6.90;53.80;;;;;;5059673;28;20044;-84
2024/01/22 08:46:09;;;;;;;13.57;7.07;;;7.00;53.70;;;;;;5057333;28;20041;-83
2024/01/22 08:48:35;;;;;;;16.02;6.28;;;7.10;53.70;;;;;;5065402;28;20057;-83
2024/01/22 08:51:00;;;;;;;14.63;6.63;;;7.10;53.40;;;;;;5066399;28;20055;-83
2024/01/22 08:53:26;;;;;;;12.82;6.78;;;7.10;53.20;;;;;;5056360;28;20040;-86
2024/01/22 08:55:52;;;;;;;18.92;6.60;;;7.10;53.10;;;;;;5056731;28;20158;-84
2024/01/22 08:58:17;;;;;;;15.32;6.90;;;7.20;53.30;;;;;;5037926;28;20033;-87
2024/01/22 09:00:43;;;;;;;10.93;6.18;;;7.10;53.10;;;;;;5060533;28;20040;-84
2024/01/22 09:03:09;;;;;;;15.35;5.75;;;7.20;53.10;;;;;;5072832;28;20072;-85
2024/01/22 09:05:35;;;;;;;15.63;6.07;;;7.10;52.90;;;;;;5074378;28;20048;-84
2024/01/22 09:08:00;;;;;;;11.20;6.28;;;7.20;52.90;;;;;;5067427;28;20516;-84
2024/01/22 09:10:26;;;;;;;16.85;5.88;;;7.30;53.00;;;;;;5066741;28;20064;-84
2024/01/22 09:12:55;;;;;;;14.23;5.85;;;7.40;52.80;;;;;;5062934;28;20044;-84
2024/01/22 09:15:21;;;;;;;14.00;6.28;;;7.50;52.90;;;;;;5059809;28;20052;-89
2024/01/22 09:17:47;;;;;;;16.55;6.00;;;7.60;52.80;;;;;;5064240;28;20403;-84
2024/01/22 09:20:14;;;;;;;14.48;6.10;;;7.70;52.70;;;;;;5062105;28;20063;-82
2024/01/22 09:22:40;;;;;;;13.95;5.65;;;7.80;52.40;;;;;;5060107;28;20033;-84
2024/01/22 09:25:06;;;;;;;13.35;5.88;;;7.80;52.20;;;;;;5059713;28;20402;-85
2024/01/22 09:27:32;;;;;;;9.90;5.97;;;7.80;52.30;;;;;;5042326;28;20402;-85
2024/01/22 09:30:01;;;;;;;11.57;5.68;;;7.90;52.10;;;;;;5058625;28;20037;-85
2024/01/22 09:32:26;;;;;;;11.63;6.32;;;8.00;52.90;;;;;;5062760;28;20029;-85
2024/01/22 09:34:52;;;;;;;11.07;5.80;;;8.10;52.20;;;;;;5056808;28;20099;-85
2024/01/22 09:37:18;;;;;;;13.30;5.95;;;8.10;52.20;;;;;;5055261;28;20040;-85
2024/01/22 09:39:46;;;;;;;10.82;5.47;;;8.20;52.30;;;;;;5054776;28;20041;-85
2024/01/22 09:42:15;;;;;;;14.90;7.22;;;8.30;52.20;;;;;;5054636;28;20029;-85
2024/01/22 09:44:41;;;;;;;12.60;6.25;;;8.50;52.40;;;;;;5056251;28;20033;-85
2024/01/22 09:47:08;;;;;;;11.63;6.63;;;8.60;52.40;;;;;;5056643;28;20048;-85
2024/01/22 09:49:36;;;;;;;14.98;5.40;;;8.70;52.10;;;;;;5056202;28;20047;-85
2024/01/22 09:52:03;;;;;;;12.85;4.95;;;8.80;51.80;;;;;;5056885;28;20363;-86
2024/01/22 09:54:30;;;;;;;11.95;4.78;;;8.90;51.60;;;;;;5054903;28;20091;-86
2024/01/22 09:56:57;;;;;;;10.80;5.00;;;9.00;51.30;;;;;;5057274;28;20044;-84
2024/01/22 09:59:25;;;;;;;10.15;4.70;;;9.10;51.20;;;;;;5055483;28;20487;-85
2024/01/22 10:01:52;;;;;;;9.77;4.50;;;9.10;51.10;;;;;;5053325;28;20064;-85
2024/01/22 10:04:19;;;;;;;10.50;4.88;;;9.20;50.80;;;;;;5036416;28;20040;-85
2024/01/22 10:06:50;;;;;;;11.23;4.90;;;9.20;50.90;;;;;;5055407;28;20445;-84
2024/01/22 10:09:17;;;;;;;12.52;5.90;;;9.30;51.00;;;;;;5059593;28;20056;-83
2024/01/22 10:11:44;;;;;;;8.40;4.35;;;9.40;51.00;;;;;;5066096;28;20119;-83
2024/01/22 10:14:10;;;;;;;8.98;4.75;;;9.50;51.00;;;;;;5054582;28;20036;-84
2024/01/22 10:16:54;;;;;;;10.15;5.30;;;9.60;51.00;;;;;;5053948;28;20052;-84
2024/01/22 10:19:26;;;;;;;12.75;5.18;;;9.80;50.90;;;;;;5054332;28;20056;-82
2024/01/22 10:22:00;;;;;;;12.82;5.43;;;9.90;51.00;;;;;;5037508;28;20029;-86
2024/01/22 10:24:26;;;;;;;8.70;4.25;;;9.90;50.80;;;;;;5037375;28;20600;-84
2024/01/22 10:26:52;;;;;;;9.80;4.80;;;10.10;49.90;;;;;;5055261;28;20080;-84
2024/01/22 10:29:22;;;;;;;11.32;4.95;;;10.20;49.70;;;;;;5055208;28;20478;-86
2024/01/22 10:32:01;;;;;;;11.18;5.18;;;10.20;49.30;;;;;;5054224;28;20025;-84
2024/01/22 10:34:30;;;;;;;11.25;5.13;;;10.30;49.60;;;;;;5055991;28;20091;-86
2024/01/22 10:37:13;;;;;;;8.75;4.95;;;10.40;49.20;;;;;;5035549;28;20124;-85
2024/01/22 10:39:40;;;;;;;10.15;4.90;;;10.40;49.70;;;;;;5053455;28;20124;-83
2024/01/22 10:42:14;;;;;;;10.45;5.45;;;10.50;49.50;;;;;;5053856;28;20036;-84
2024/01/22 10:44:42;;;;;;;10.02;5.18;;;10.60;48.90;;;;;;5061297;28;20063;-85
2024/01/22 10:47:09;;;;;;;8.05;4.45;;;10.60;49.40;;;;;;5067033;28;20036;-84
2024/01/22 10:49:35;;;;;;;10.32;5.00;;;10.70;49.50;;;;;;5068714;28;20112;-83
2024/01/22 10:52:03;;;;;;;11.35;5.53;;;10.80;49.50;;;;;;5058101;28;20044;-83
2024/01/22 10:54:33;;;;;;;11.18;4.57;;;10.90;49.50;;;;;;5053816;28;20067;-85
2024/01/22 10:57:04;;;;;;;12.00;5.32;;;11.10;49.50;;;;;;5053548;28;20037;-86
2024/01/22 10:59:38;;;;;;;11.88;4.97;;;11.20;49.50;;;;;;5054661;28;20071;-83
2024/01/22 11:02:15;;;;;;;9.18;5.22;;;11.30;49.30;;;;;;5061795;28;20036;-86
2024/01/22 11:04:44;;;;;;;11.65;5.03;;;11.30;48.60;;;;;;5054216;28;20041;-84
2024/01/22 11:07:11;;;;;;;17.02;4.53;;;11.40;49.10;;;;;;5054818;28;20087;-84
2024/01/22 11:09:39;;;;;;;6.38;4.13;;;11.50;48.90;;;;;;5056131;28;20045;-82
2024/01/22 11:12:11;;;;;;;7.03;4.05;;;11.60;49.10;;;;;;5036096;28;20547;-84
2024/01/22 11:14:38;;;;;;;11.73;4.80;;;11.70;49.20;;;;;;5053278;28;20166;-82
2024/01/22 11:17:09;;;;;;;8.15;4.80;;;11.80;49.10;;;;;;5053919;28;20029;-83
2024/01/22 11:19:35;;;;;;;8.45;4.25;;;11.90;48.70;;;;;;5056162;28;20051;-84
2024/01/22 11:22:12;;;;;;;10.18;4.75;;;11.90;48.70;;;;;;5055298;28;20033;-86
2024/01/22 11:24:39;;;;;;;8.40;4.88;;;12.00;48.70;;;;;;5036371;28;20090;-84
2024/01/22 11:27:06;;;;;;;18.83;5.55;;;12.10;49.00;;;;;;5055834;28;20117;-84
2024/01/22 11:29:33;;;;;;;10.95;5.13;;;12.20;49.10;;;;;;5061031;28;20037;-83
2024/01/22 11:32:26;;;;;;;9.63;5.03;;;12.20;49.00;;;;;;5054316;28;20056;-84
2024/01/22 11:34:56;;;;;;;10.90;5.40;;;12.30;48.90;;;;;;5052833;28;20033;-83
2024/01/22 11:37:36;;;;;;;12.20;4.57;;;12.40;49.30;;;;;;5052980;28;20043;-84
2024/01/22 11:40:03;;;;;;;11.02;5.55;;;12.50;49.50;;;;;;5035113;28;20060;-84
2024/01/22 11:42:30;;;;;;;16.02;5.30;;;12.60;49.40;;;;;;5052896;28;20065;-83
2024/01/22 11:44:58;;;;;;;9.40;5.20;;;12.60;49.20;;;;;;5054256;28;20048;-82
2024/01/22 11:47:30;;;;;;;8.80;4.63;;;12.80;49.40;;;;;;5055385;28;20036;-82
2024/01/22 11:50:05;;;;;;;9.32;4.80;;;12.90;49.30;;;;;;5053876;28;20037;-83
2024/01/22 11:52:31;;;;;;;9.25;4.82;;;13.00;49.10;;;;;;5057718;28;20094;-85
2024/01/22 11:55:04;;;;;;;11.23;5.18;;;13.00;48.40;;;;;;5038581;28;20490;-85
2024/01/22 11:57:37;;;;;;;10.88;4.55;;;13.10;48.30;;;;;;5056746;28;20033;-82
2024/01/22 12:00:16;;;;;;;7.35;3.85;;;13.10;47.90;;;;;;5056239;28;20442;-86
2024/01/22 12:02:46;;;;;;;10.50;5.28;;;13.20;47.80;;;;;;5055402;28;20028;-84
2024/01/22 12:05:17;;;;;;;8.65;4.20;;;13.30;47.80;;;;;;5055603;28;20091;-83
2024/01/22 12:07:44;;;;;;;12.90;5.25;;;13.40;47.90;;;;;;5055205;28;20025;-85
2024/01/22 12:10:27;;;;;;;11.10;4.93;;;13.50;47.70;;;;;;5055798;28;20065;-84
2024/01/22 12:12:58;;;;;;;11.68;4.75;;;13.60;48.10;;;;;;5055597;28;20163;-83
2024/01/22 12:15:25;;;;;;;8.45;4.18;;;13.70;47.00;;;;;;5055882;28;20029;-83
2024/01/22 12:17:52;;;;;;;8.68;3.33;;;13.70;46.80;;;;;;5055680;28;20032;-83
2024/01/22 12:20:19;;;;;;;6.07;3.30;;;13.80;47.10;;;;;;5056375;28;20493;-84
2024/01/22 12:22:45;;;;;;;6.97;3.47;;;13.90;47.00;;;;;;5055801;28;20074;-83
2024/01/22 12:25:14;;;;;;;8.07;3.78;;;13.90;46.30;;;;;;5056930;28;20490;-82
2024/01/22 12:27:39;;;;;;;8.05;3.30;;;14.00;45.90;;;;;;5058479;28;20048;-84
2024/01/22 12:30:12;;;;;;;6.63;3.55;;;14.00;45.30;;;;;;5055796;28;20043;-82
2024/01/22 12:32:39;;;;;;;7.35;3.65;;;14.10;45.10;;;;;;5056050;28;20053;-84
2024/01/22 12:35:08;;;;;;;11.82;3.95;;;14.10;45.10;;;;;;5041991;28;20040;-83
2024/01/22 12:37:34;;;;;;;5.65;3.10;;;14.20;44.70;;;;;;5063764;28;20044;-83
2024/01/22 12:40:14;;;;;;;6.85;3.55;;;14.20;44.30;;;;;;5062604;28;20044;-84
2024/01/22 12:42:47;;;;;;;8.30;3.75;;;14.30;45.80;;;;;;5058014;28;20033;-85
2024/01/22 12:45:15;;;;;;;5.55;3.67;;;14.30;45.40;;;;;;5059870;28;20037;-82
2024/01/22 12:47:41;;;;;;;9.05;3.63;;;14.30;43.60;;;;;;5057013;28;20112;-82